Jiaonan, China
Current Conditions -  °F | °C
As of 9:00 AM on Wednesday 22 Oct 2014 (Local Time) from ZSQD Reporting Station
Haze Haze  
Wind Chill: 14°   Ceiling: Unl
Heat Index: 14°   Visibility: 3mi
Dew Point:   Wind: 7mph
Humidity: 67%   Direction: 330°NNW
Pressure: 30.27"   Gusts: NA
Location:  35.88°N, 119.96°E
Report Text: ZSQD 220100Z 33003MPS 300V360 5000 BR NSC 14/08 Q1025 NOSIG
Loading
Personal Weather Stations






























Interactive Weather Map
Tropical Storm Tracking
New forecast layout! Learn more

10-Day Weather Forecast

Advertisements
Track Severe Weather on mobile